sensor_id;sensor_type;location;lat;lon;timestamp;P1;durP1;ratioP1;P2;durP2;ratioP2
14599;SDS011;7386;45.586;12.854;2023-09-12T00:01:03;27.05;;;24.25;;
14599;SDS011;7386;45.586;12.854;2023-09-12T00:03:33;24.70;;;22.30;;
14599;SDS011;7386;45.586;12.854;2023-09-12T00:06:02;23.70;;;21.40;;
14599;SDS011;7386;45.586;12.854;2023-09-12T00:08:31;24.50;;;21.00;;
14599;SDS011;7386;45.586;12.854;2023-09-12T00:11:03;24.10;;;21.80;;
14599;SDS011;7386;45.586;12.854;2023-09-12T00:13:32;23.30;;;21.00;;
14599;SDS011;7386;45.586;12.854;2023-09-12T00:16:01;23.77;;;21.38;;
14599;SDS011;7386;45.586;12.854;2023-09-12T00:18:31;22.98;;;20.67;;
14599;SDS011;7386;45.586;12.854;2023-09-12T00:21:01;21.48;;;19.30;;
14599;SDS011;7386;45.586;12.854;2023-09-12T00:23:30;22.77;;;20.48;;
14599;SDS011;7386;45.586;12.854;2023-09-12T00:25:58;22.25;;;19.98;;
14599;SDS011;7386;45.586;12.854;2023-09-12T00:28:28;21.95;;;19.85;;
14599;SDS011;7386;45.586;12.854;2023-09-12T00:30:57;22.02;;;20.02;;
14599;SDS011;7386;45.586;12.854;2023-09-12T00:33:25;21.48;;;19.38;;
14599;SDS011;7386;45.586;12.854;2023-09-12T00:35:54;21.20;;;19.10;;
14599;SDS011;7386;45.586;12.854;2023-09-12T00:38:23;21.05;;;19.00;;
14599;SDS011;7386;45.586;12.854;2023-09-12T00:40:51;21.05;;;18.95;;
14599;SDS011;7386;45.586;12.854;2023-09-12T00:43:20;20.13;;;18.30;;
14599;SDS011;7386;45.586;12.854;2023-09-12T00:45:49;20.38;;;18.25;;
14599;SDS011;7386;45.586;12.854;2023-09-12T00:48:18;20.35;;;18.30;;
14599;SDS011;7386;45.586;12.854;2023-09-12T00:50:47;22.10;;;20.00;;
14599;SDS011;7386;45.586;12.854;2023-09-12T00:53:16;21.60;;;19.52;;
14599;SDS011;7386;45.586;12.854;2023-09-12T00:55:48;20.75;;;18.65;;
14599;SDS011;7386;45.586;12.854;2023-09-12T00:58:20;20.92;;;18.92;;
14599;SDS011;7386;45.586;12.854;2023-09-12T01:00:50;20.17;;;18.17;;
14599;SDS011;7386;45.586;12.854;2023-09-12T01:03:18;20.15;;;18.25;;
14599;SDS011;7386;45.586;12.854;2023-09-12T01:05:47;20.92;;;18.52;;
14599;SDS011;7386;45.586;12.854;2023-09-12T01:08:16;20.33;;;17.60;;
14599;SDS011;7386;45.586;12.854;2023-09-12T01:10:45;21.20;;;19.15;;
14599;SDS011;7386;45.586;12.854;2023-09-12T01:13:15;20.05;;;18.05;;
14599;SDS011;7386;45.586;12.854;2023-09-12T01:15:43;19.38;;;17.38;;
14599;SDS011;7386;45.586;12.854;2023-09-12T01:18:13;19.92;;;18.02;;
14599;SDS011;7386;45.586;12.854;2023-09-12T01:20:44;20.10;;;18.10;;
14599;SDS011;7386;45.586;12.854;2023-09-12T01:23:28;20.85;;;18.75;;
14599;SDS011;7386;45.586;12.854;2023-09-12T01:28:47;25.25;;;22.65;;
14599;SDS011;7386;45.586;12.854;2023-09-12T01:31:17;27.92;;;24.73;;
14599;SDS011;7386;45.586;12.854;2023-09-12T01:33:45;29.33;;;26.15;;
14599;SDS011;7386;45.586;12.854;2023-09-12T01:36:15;28.45;;;25.65;;
14599;SDS011;7386;45.586;12.854;2023-09-12T01:38:44;28.00;;;25.20;;
14599;SDS011;7386;45.586;12.854;2023-09-12T01:41:12;27.15;;;23.85;;
14599;SDS011;7386;45.586;12.854;2023-09-12T01:43:41;26.40;;;23.70;;
14599;SDS011;7386;45.586;12.854;2023-09-12T01:46:11;27.05;;;24.35;;
14599;SDS011;7386;45.586;12.854;2023-09-12T01:48:40;27.25;;;24.48;;
14599;SDS011;7386;45.586;12.854;2023-09-12T01:51:10;27.30;;;24.60;;
14599;SDS011;7386;45.586;12.854;2023-09-12T01:53:39;28.00;;;25.02;;
14599;SDS011;7386;45.586;12.854;2023-09-12T01:56:09;29.38;;;26.35;;
14599;SDS011;7386;45.586;12.854;2023-09-12T01:58:37;27.98;;;25.17;;
14599;SDS011;7386;45.586;12.854;2023-09-12T02:01:06;30.02;;;26.95;;
14599;SDS011;7386;45.586;12.854;2023-09-12T02:03:37;29.17;;;26.20;;
14599;SDS011;7386;45.586;12.854;2023-09-12T02:06:05;27.05;;;24.30;;
14599;SDS011;7386;45.586;12.854;2023-09-12T02:08:34;26.40;;;23.77;;
14599;SDS011;7386;45.586;12.854;2023-09-12T02:11:02;23.65;;;21.35;;
14599;SDS011;7386;45.586;12.854;2023-09-12T02:13:31;21.98;;;19.88;;
14599;SDS011;7386;45.586;12.854;2023-09-12T02:15:59;22.60;;;20.42;;
14599;SDS011;7386;45.586;12.854;2023-09-12T02:18:29;22.27;;;20.13;;
14599;SDS011;7386;45.586;12.854;2023-09-12T02:20:59;23.92;;;21.52;;
14599;SDS011;7386;45.586;12.854;2023-09-12T02:23:28;25.85;;;23.35;;
14599;SDS011;7386;45.586;12.854;2023-09-12T02:25:56;26.02;;;23.42;;
14599;SDS011;7386;45.586;12.854;2023-09-12T02:28:25;24.65;;;22.20;;
14599;SDS011;7386;45.586;12.854;2023-09-12T02:30:53;25.30;;;22.83;;
14599;SDS011;7386;45.586;12.854;2023-09-12T02:33:22;26.92;;;24.23;;
14599;SDS011;7386;45.586;12.854;2023-09-12T02:35:51;27.38;;;24.58;;
14599;SDS011;7386;45.586;12.854;2023-09-12T02:38:20;26.58;;;23.95;;
14599;SDS011;7386;45.586;12.854;2023-09-12T02:40:49;26.65;;;24.02;;
14599;SDS011;7386;45.586;12.854;2023-09-12T02:43:17;26.20;;;23.58;;
14599;SDS011;7386;45.586;12.854;2023-09-12T02:45:46;28.15;;;25.27;;
14599;SDS011;7386;45.586;12.854;2023-09-12T02:48:14;27.67;;;24.83;;
14599;SDS011;7386;45.586;12.854;2023-09-12T02:50:43;27.45;;;24.65;;
14599;SDS011;7386;45.586;12.854;2023-09-12T02:53:13;28.23;;;25.48;;
14599;SDS011;7386;45.586;12.854;2023-09-12T02:55:42;28.38;;;25.50;;
14599;SDS011;7386;45.586;12.854;2023-09-12T02:58:20;28.50;;;25.75;;
14599;SDS011;7386;45.586;12.854;2023-09-12T03:00:49;27.17;;;24.42;;
14599;SDS011;7386;45.586;12.854;2023-09-12T03:03:21;25.65;;;23.15;;
14599;SDS011;7386;45.586;12.854;2023-09-12T03:05:56;26.10;;;23.50;;
14599;SDS011;7386;45.586;12.854;2023-09-12T03:08:25;26.05;;;23.42;;
14599;SDS011;7386;45.586;12.854;2023-09-12T03:10:54;26.25;;;23.60;;
14599;SDS011;7386;45.586;12.854;2023-09-12T03:13:24;26.85;;;24.15;;
14599;SDS011;7386;45.586;12.854;2023-09-12T03:15:53;27.27;;;24.58;;
14599;SDS011;7386;45.586;12.854;2023-09-12T03:18:22;27.83;;;25.05;;
14599;SDS011;7386;45.586;12.854;2023-09-12T03:20:50;28.65;;;25.85;;
14599;SDS011;7386;45.586;12.854;2023-09-12T03:23:19;26.88;;;24.17;;
14599;SDS011;7386;45.586;12.854;2023-09-12T03:25:47;26.98;;;24.35;;
14599;SDS011;7386;45.586;12.854;2023-09-12T03:28:16;27.60;;;24.73;;
14599;SDS011;7386;45.586;12.854;2023-09-12T03:30:45;28.20;;;25.33;;
14599;SDS011;7386;45.586;12.854;2023-09-12T03:33:14;26.77;;;24.08;;
14599;SDS011;7386;45.586;12.854;2023-09-12T03:35:43;27.08;;;24.38;;
14599;SDS011;7386;45.586;12.854;2023-09-12T03:38:11;26.45;;;23.75;;
14599;SDS011;7386;45.586;12.854;2023-09-12T03:40:40;25.65;;;23.08;;
14599;SDS011;7386;45.586;12.854;2023-09-12T03:43:08;24.35;;;21.77;;
14599;SDS011;7386;45.586;12.854;2023-09-12T03:45:37;23.30;;;21.00;;
14599;SDS011;7386;45.586;12.854;2023-09-12T03:48:07;23.30;;;21.10;;
14599;SDS011;7386;45.586;12.854;2023-09-12T03:50:35;24.20;;;21.83;;
14599;SDS011;7386;45.586;12.854;2023-09-12T03:53:04;24.42;;;22.02;;
14599;SDS011;7386;45.586;12.854;2023-09-12T03:55:32;24.00;;;21.63;;
14599;SDS011;7386;45.586;12.854;2023-09-12T03:58:01;23.90;;;21.30;;
14599;SDS011;7386;45.586;12.854;2023-09-12T04:00:30;25.60;;;23.00;;
14599;SDS011;7386;45.586;12.854;2023-09-12T04:02:58;23.05;;;20.75;;
14599;SDS011;7386;45.586;12.854;2023-09-12T04:05:28;24.38;;;22.05;;
14599;SDS011;7386;45.586;12.854;2023-09-12T04:07:56;23.52;;;21.13;;
14599;SDS011;7386;45.586;12.854;2023-09-12T04:10:25;22.77;;;20.58;;
14599;SDS011;7386;45.586;12.854;2023-09-12T04:12:53;22.83;;;20.63;;
14599;SDS011;7386;45.586;12.854;2023-09-12T04:15:22;23.83;;;21.48;;
14599;SDS011;7386;45.586;12.854;2023-09-12T04:17:51;23.70;;;21.40;;
14599;SDS011;7386;45.586;12.854;2023-09-12T04:20:19;25.08;;;22.63;;
14599;SDS011;7386;45.586;12.854;2023-09-12T04:22:49;25.60;;;23.05;;
14599;SDS011;7386;45.586;12.854;2023-09-12T04:25:18;26.88;;;24.27;;
14599;SDS011;7386;45.586;12.854;2023-09-12T04:27:47;26.05;;;23.52;;
14599;SDS011;7386;45.586;12.854;2023-09-12T04:30:15;25.70;;;23.20;;
14599;SDS011;7386;45.586;12.854;2023-09-12T04:32:44;25.98;;;23.27;;
14599;SDS011;7386;45.586;12.854;2023-09-12T04:35:12;25.77;;;23.15;;
14599;SDS011;7386;45.586;12.854;2023-09-12T04:37:41;27.63;;;24.92;;
14599;SDS011;7386;45.586;12.854;2023-09-12T04:40:11;31.55;;;28.27;;
14599;SDS011;7386;45.586;12.854;2023-09-12T04:42:39;35.08;;;31.33;;
14599;SDS011;7386;45.586;12.854;2023-09-12T04:45:08;33.97;;;30.42;;
14599;SDS011;7386;45.586;12.854;2023-09-12T04:47:37;33.03;;;29.63;;
14599;SDS011;7386;45.586;12.854;2023-09-12T04:50:06;35.78;;;31.90;;
14599;SDS011;7386;45.586;12.854;2023-09-12T04:52:34;35.33;;;31.50;;
14599;SDS011;7386;45.586;12.854;2023-09-12T04:55:03;36.50;;;32.72;;
14599;SDS011;7386;45.586;12.854;2023-09-12T04:57:33;36.20;;;32.45;;
14599;SDS011;7386;45.586;12.854;2023-09-12T05:00:02;36.85;;;33.00;;
14599;SDS011;7386;45.586;12.854;2023-09-12T05:02:32;36.85;;;32.85;;
14599;SDS011;7386;45.586;12.854;2023-09-12T05:05:00;36.08;;;32.38;;
14599;SDS011;7386;45.586;12.854;2023-09-12T05:07:29;37.83;;;33.83;;
14599;SDS011;7386;45.586;12.854;2023-09-12T05:09:57;38.15;;;34.13;;
14599;SDS011;7386;45.586;12.854;2023-09-12T05:12:26;36.80;;;32.92;;
14599;SDS011;7386;45.586;12.854;2023-09-12T05:14:56;42.70;;;33.92;;
14599;SDS011;7386;45.586;12.854;2023-09-12T05:17:24;36.50;;;32.70;;
14599;SDS011;7386;45.586;12.854;2023-09-12T05:19:53;37.88;;;33.88;;
14599;SDS011;7386;45.586;12.854;2023-09-12T05:22:21;37.55;;;33.65;;
14599;SDS011;7386;45.586;12.854;2023-09-12T05:24:50;38.58;;;33.42;;
14599;SDS011;7386;45.586;12.854;2023-09-12T05:27:18;36.90;;;33.15;;
14599;SDS011;7386;45.586;12.854;2023-09-12T05:29:47;37.75;;;33.63;;
14599;SDS011;7386;45.586;12.854;2023-09-12T05:32:17;38.45;;;34.33;;
14599;SDS011;7386;45.586;12.854;2023-09-12T05:34:46;36.17;;;32.42;;
14599;SDS011;7386;45.586;12.854;2023-09-12T05:37:16;35.58;;;31.80;;
14599;SDS011;7386;45.586;12.854;2023-09-12T05:39:45;34.47;;;30.85;;
14599;SDS011;7386;45.586;12.854;2023-09-12T05:42:14;33.95;;;30.45;;
14599;SDS011;7386;45.586;12.854;2023-09-12T05:44:47;35.42;;;30.95;;
14599;SDS011;7386;45.586;12.854;2023-09-12T05:47:18;33.92;;;30.27;;
14599;SDS011;7386;45.586;12.854;2023-09-12T05:49:47;32.53;;;29.13;;
14599;SDS011;7386;45.586;12.854;2023-09-12T05:52:15;28.75;;;25.65;;
14599;SDS011;7386;45.586;12.854;2023-09-12T05:54:44;27.33;;;23.70;;
14599;SDS011;7386;45.586;12.854;2023-09-12T05:57:12;24.65;;;21.38;;
14599;SDS011;7386;45.586;12.854;2023-09-12T05:59:41;24.40;;;20.77;;
14599;SDS011;7386;45.586;12.854;2023-09-12T06:02:09;22.95;;;20.55;;
14599;SDS011;7386;45.586;12.854;2023-09-12T06:04:39;21.92;;;19.48;;
14599;SDS011;7386;45.586;12.854;2023-09-12T06:07:08;21.45;;;19.15;;
14599;SDS011;7386;45.586;12.854;2023-09-12T06:09:37;21.05;;;18.80;;
14599;SDS011;7386;45.586;12.854;2023-09-12T06:12:06;21.35;;;18.95;;
14599;SDS011;7386;45.586;12.854;2023-09-12T06:14:34;20.58;;;18.33;;
14599;SDS011;7386;45.586;12.854;2023-09-12T06:17:03;20.70;;;18.45;;
14599;SDS011;7386;45.586;12.854;2023-09-12T06:19:31;21.17;;;18.27;;
14599;SDS011;7386;45.586;12.854;2023-09-12T06:22:01;19.25;;;17.25;;
14599;SDS011;7386;45.586;12.854;2023-09-12T06:24:30;19.05;;;17.00;;
14599;SDS011;7386;45.586;12.854;2023-09-12T06:26:58;18.73;;;16.73;;
14599;SDS011;7386;45.586;12.854;2023-09-12T06:29:27;18.52;;;16.52;;
14599;SDS011;7386;45.586;12.854;2023-09-12T06:31:55;18.13;;;16.23;;
14599;SDS011;7386;45.586;12.854;2023-09-12T06:34:24;19.08;;;16.73;;
14599;SDS011;7386;45.586;12.854;2023-09-12T06:36:54;17.98;;;15.93;;
14599;SDS011;7386;45.586;12.854;2023-09-12T06:39:23;18.60;;;16.55;;
14599;SDS011;7386;45.586;12.854;2023-09-12T06:41:52;17.55;;;15.70;;
14599;SDS011;7386;45.586;12.854;2023-09-12T06:44:24;18.25;;;16.33;;
14599;SDS011;7386;45.586;12.854;2023-09-12T06:46:52;18.08;;;16.15;;
14599;SDS011;7386;45.586;12.854;2023-09-12T06:49:21;17.75;;;15.88;;
14599;SDS011;7386;45.586;12.854;2023-09-12T06:51:49;17.52;;;15.65;;
14599;SDS011;7386;45.586;12.854;2023-09-12T06:54:18;18.85;;;16.30;;
14599;SDS011;7386;45.586;12.854;2023-09-12T06:56:48;17.40;;;15.23;;
14599;SDS011;7386;45.586;12.854;2023-09-12T06:59:16;17.60;;;15.23;;
14599;SDS011;7386;45.586;12.854;2023-09-12T07:01:45;16.27;;;14.68;;
14599;SDS011;7386;45.586;12.854;2023-09-12T07:04:13;16.65;;;14.93;;
14599;SDS011;7386;45.586;12.854;2023-09-12T07:06:42;16.17;;;14.40;;
14599;SDS011;7386;45.586;12.854;2023-09-12T07:09:10;15.88;;;14.20;;
14599;SDS011;7386;45.586;12.854;2023-09-12T07:11:41;15.40;;;13.80;;
14599;SDS011;7386;45.586;12.854;2023-09-12T07:14:11;15.73;;;14.02;;
14599;SDS011;7386;45.586;12.854;2023-09-12T07:16:40;15.68;;;14.07;;
14599;SDS011;7386;45.586;12.854;2023-09-12T07:19:08;16.02;;;14.38;;
14599;SDS011;7386;45.586;12.854;2023-09-12T07:21:37;16.25;;;14.65;;
14599;SDS011;7386;45.586;12.854;2023-09-12T07:24:06;16.38;;;14.68;;
14599;SDS011;7386;45.586;12.854;2023-09-12T07:26:34;16.35;;;14.48;;
14599;SDS011;7386;45.586;12.854;2023-09-12T07:29:03;16.20;;;14.52;;
14599;SDS011;7386;45.586;12.854;2023-09-12T07:31:33;16.40;;;14.55;;
14599;SDS011;7386;45.586;12.854;2023-09-12T07:34:02;15.50;;;13.90;;
14599;SDS011;7386;45.586;12.854;2023-09-12T07:36:34;16.10;;;14.43;;
14599;SDS011;7386;45.586;12.854;2023-09-12T07:39:02;16.08;;;14.40;;
14599;SDS011;7386;45.586;12.854;2023-09-12T07:41:31;15.82;;;14.30;;
14599;SDS011;7386;45.586;12.854;2023-09-12T07:44:00;15.77;;;14.23;;
14599;SDS011;7386;45.586;12.854;2023-09-12T07:46:31;15.10;;;13.57;;
14599;SDS011;7386;45.586;12.854;2023-09-12T07:49:01;15.25;;;13.75;;
14599;SDS011;7386;45.586;12.854;2023-09-12T07:51:29;15.93;;;14.23;;
14599;SDS011;7386;45.586;12.854;2023-09-12T07:53:58;15.40;;;13.98;;
14599;SDS011;7386;45.586;12.854;2023-09-12T07:56:26;14.93;;;13.52;;
14599;SDS011;7386;45.586;12.854;2023-09-12T07:58:56;16.85;;;15.15;;
14599;SDS011;7386;45.586;12.854;2023-09-12T08:01:25;15.85;;;14.32;;
14599;SDS011;7386;45.586;12.854;2023-09-12T08:03:54;16.48;;;14.70;;
14599;SDS011;7386;45.586;12.854;2023-09-12T08:06:25;16.08;;;14.38;;
14599;SDS011;7386;45.586;12.854;2023-09-12T08:08:53;18.20;;;16.40;;
14599;SDS011;7386;45.586;12.854;2023-09-12T08:11:22;17.60;;;15.43;;
14599;SDS011;7386;45.586;12.854;2023-09-12T08:13:51;16.33;;;14.77;;
14599;SDS011;7386;45.586;12.854;2023-09-12T08:16:22;15.75;;;14.25;;
14599;SDS011;7386;45.586;12.854;2023-09-12T08:18:50;15.60;;;14.00;;
14599;SDS011;7386;45.586;12.854;2023-09-12T08:21:19;16.17;;;14.52;;
14599;SDS011;7386;45.586;12.854;2023-09-12T08:23:49;19.13;;;17.30;;
14599;SDS011;7386;45.586;12.854;2023-09-12T08:26:17;18.15;;;16.45;;
14599;SDS011;7386;45.586;12.854;2023-09-12T08:28:46;18.13;;;16.33;;
14599;SDS011;7386;45.586;12.854;2023-09-12T08:31:14;17.67;;;15.93;;
14599;SDS011;7386;45.586;12.854;2023-09-12T08:33:43;18.17;;;16.45;;
14599;SDS011;7386;45.586;12.854;2023-09-12T08:36:11;17.88;;;16.17;;
14599;SDS011;7386;45.586;12.854;2023-09-12T08:38:40;18.48;;;16.52;;
14599;SDS011;7386;45.586;12.854;2023-09-12T08:41:10;18.77;;;17.05;;
14599;SDS011;7386;45.586;12.854;2023-09-12T08:43:38;17.88;;;16.17;;
14599;SDS011;7386;45.586;12.854;2023-09-12T08:46:07;21.85;;;19.75;;
14599;SDS011;7386;45.586;12.854;2023-09-12T08:48:36;56.65;;;27.25;;
14599;SDS011;7386;45.586;12.854;2023-09-12T08:51:05;59.15;;;28.15;;
14599;SDS011;7386;45.586;12.854;2023-09-12T08:53:35;42.47;;;23.83;;
14599;SDS011;7386;45.586;12.854;2023-09-12T08:56:04;33.72;;;22.50;;
14599;SDS011;7386;45.586;12.854;2023-09-12T08:58:34;26.83;;;21.52;;
14599;SDS011;7386;45.586;12.854;2023-09-12T09:01:03;24.58;;;19.33;;
14599;SDS011;7386;45.586;12.854;2023-09-12T09:03:32;22.38;;;17.85;;
14599;SDS011;7386;45.586;12.854;2023-09-12T09:06:00;18.85;;;16.08;;
14599;SDS011;7386;45.586;12.854;2023-09-12T09:08:30;17.42;;;15.13;;
14599;SDS011;7386;45.586;12.854;2023-09-12T09:10:59;17.90;;;16.02;;
14599;SDS011;7386;45.586;12.854;2023-09-12T09:13:30;18.48;;;16.63;;
14599;SDS011;7386;45.586;12.854;2023-09-12T09:16:12;19.35;;;16.83;;
14599;SDS011;7386;45.586;12.854;2023-09-12T09:18:51;18.33;;;16.63;;
14599;SDS011;7386;45.586;12.854;2023-09-12T09:21:20;18.45;;;16.60;;
14599;SDS011;7386;45.586;12.854;2023-09-12T09:23:51;16.73;;;15.05;;
14599;SDS011;7386;45.586;12.854;2023-09-12T09:26:19;17.42;;;15.77;;
14599;SDS011;7386;45.586;12.854;2023-09-12T09:29:01;16.02;;;14.52;;
14599;SDS011;7386;45.586;12.854;2023-09-12T09:31:31;18.77;;;16.88;;
14599;SDS011;7386;45.586;12.854;2023-09-12T09:34:00;17.88;;;16.13;;
14599;SDS011;7386;45.586;12.854;2023-09-12T09:36:30;17.60;;;15.82;;
14599;SDS011;7386;45.586;12.854;2023-09-12T09:39:00;17.92;;;16.25;;
14599;SDS011;7386;45.586;12.854;2023-09-12T09:41:31;15.55;;;14.05;;
14599;SDS011;7386;45.586;12.854;2023-09-12T09:44:00;16.60;;;15.07;;
14599;SDS011;7386;45.586;12.854;2023-09-12T09:46:32;14.48;;;13.18;;
14599;SDS011;7386;45.586;12.854;2023-09-12T09:49:00;13.82;;;12.43;;
14599;SDS011;7386;45.586;12.854;2023-09-12T09:51:29;12.88;;;11.68;;
14599;SDS011;7386;45.586;12.854;2023-09-12T09:53:59;13.90;;;12.60;;
14599;SDS011;7386;45.586;12.854;2023-09-12T09:56:27;12.80;;;11.60;;
14599;SDS011;7386;45.586;12.854;2023-09-12T09:58:56;12.35;;;11.15;;
14599;SDS011;7386;45.586;12.854;2023-09-12T10:01:26;12.90;;;11.70;;
14599;SDS011;7386;45.586;12.854;2023-09-12T10:03:58;12.30;;;11.05;;
14599;SDS011;7386;45.586;12.854;2023-09-12T10:06:27;14.23;;;12.93;;
14599;SDS011;7386;45.586;12.854;2023-09-12T10:08:56;13.40;;;12.05;;
14599;SDS011;7386;45.586;12.854;2023-09-12T10:11:27;13.15;;;11.95;;
14599;SDS011;7386;45.586;12.854;2023-09-12T10:13:57;12.15;;;10.95;;
14599;SDS011;7386;45.586;12.854;2023-09-12T10:16:28;11.65;;;10.55;;
14599;SDS011;7386;45.586;12.854;2023-09-12T10:19:02;11.68;;;10.68;;
14599;SDS011;7386;45.586;12.854;2023-09-12T10:21:33;12.25;;;11.15;;
14599;SDS011;7386;45.586;12.854;2023-09-12T10:24:02;12.15;;;11.05;;
14599;SDS011;7386;45.586;12.854;2023-09-12T10:26:31;11.90;;;10.70;;
14599;SDS011;7386;45.586;12.854;2023-09-12T10:29:01;11.88;;;10.77;;
14599;SDS011;7386;45.586;12.854;2023-09-12T10:31:30;11.60;;;10.50;;
14599;SDS011;7386;45.586;12.854;2023-09-12T10:34:01;12.40;;;11.30;;
14599;SDS011;7386;45.586;12.854;2023-09-12T10:36:33;11.15;;;10.00;;
14599;SDS011;7386;45.586;12.854;2023-09-12T10:39:02;10.55;;;9.57;;
14599;SDS011;7386;45.586;12.854;2023-09-12T10:41:32;11.57;;;10.27;;
14599;SDS011;7386;45.586;12.854;2023-09-12T10:44:01;10.30;;;9.32;;
14599;SDS011;7386;45.586;12.854;2023-09-12T10:46:35;11.40;;;10.13;;
14599;SDS011;7386;45.586;12.854;2023-09-12T10:49:07;11.15;;;10.15;;
14599;SDS011;7386;45.586;12.854;2023-09-12T10:51:40;10.85;;;9.75;;
14599;SDS011;7386;45.586;12.854;2023-09-12T10:54:09;13.80;;;12.45;;
14599;SDS011;7386;45.586;12.854;2023-09-12T10:56:40;12.40;;;11.13;;
14599;SDS011;7386;45.586;12.854;2023-09-12T10:59:12;11.07;;;10.07;;
14599;SDS011;7386;45.586;12.854;2023-09-12T11:01:42;11.43;;;10.40;;
14599;SDS011;7386;45.586;12.854;2023-09-12T11:04:32;10.73;;;9.73;;
14599;SDS011;7386;45.586;12.854;2023-09-12T11:07:01;10.20;;;9.30;;
14599;SDS011;7386;45.586;12.854;2023-09-12T11:09:29;10.13;;;9.23;;
14599;SDS011;7386;45.586;12.854;2023-09-12T11:11:59;11.15;;;10.10;;
14599;SDS011;7386;45.586;12.854;2023-09-12T11:14:31;10.57;;;9.57;;
14599;SDS011;7386;45.586;12.854;2023-09-12T11:19:48;11.57;;;10.48;;
14599;SDS011;7386;45.586;12.854;2023-09-12T11:22:22;10.85;;;9.80;;
14599;SDS011;7386;45.586;12.854;2023-09-12T11:24:51;11.43;;;10.35;;
14599;SDS011;7386;45.586;12.854;2023-09-12T11:27:19;10.50;;;9.50;;
14599;SDS011;7386;45.586;12.854;2023-09-12T11:29:48;11.63;;;10.43;;
14599;SDS011;7386;45.586;12.854;2023-09-12T11:32:26;10.45;;;9.32;;
14599;SDS011;7386;45.586;12.854;2023-09-12T11:34:56;10.57;;;9.57;;
14599;SDS011;7386;45.586;12.854;2023-09-12T11:37:25;10.30;;;9.18;;
14599;SDS011;7386;45.586;12.854;2023-09-12T11:39:56;10.30;;;9.30;;
14599;SDS011;7386;45.586;12.854;2023-09-12T11:42:25;9.88;;;8.88;;
14599;SDS011;7386;45.586;12.854;2023-09-12T11:44:53;11.25;;;10.05;;
14599;SDS011;7386;45.586;12.854;2023-09-12T11:47:22;10.90;;;9.88;;
14599;SDS011;7386;45.586;12.854;2023-09-12T11:49:51;10.30;;;9.40;;
14599;SDS011;7386;45.586;12.854;2023-09-12T11:52:21;12.05;;;10.80;;
14599;SDS011;7386;45.586;12.854;2023-09-12T11:54:51;10.52;;;9.50;;
14599;SDS011;7386;45.586;12.854;2023-09-12T11:57:20;10.15;;;9.20;;
14599;SDS011;7386;45.586;12.854;2023-09-12T11:59:48;10.15;;;9.10;;
14599;SDS011;7386;45.586;12.854;2023-09-12T12:02:18;10.30;;;9.10;;
14599;SDS011;7386;45.586;12.854;2023-09-12T12:04:47;9.95;;;8.95;;
14599;SDS011;7386;45.586;12.854;2023-09-12T12:07:17;9.85;;;8.95;;
14599;SDS011;7386;45.586;12.854;2023-09-12T12:09:46;9.60;;;8.70;;
14599;SDS011;7386;45.586;12.854;2023-09-12T12:12:15;9.70;;;8.80;;
14599;SDS011;7386;45.586;12.854;2023-09-12T12:14:43;9.45;;;8.55;;
14599;SDS011;7386;45.586;12.854;2023-09-12T12:17:12;9.45;;;8.55;;
14599;SDS011;7386;45.586;12.854;2023-09-12T12:19:44;9.90;;;8.48;;
14599;SDS011;7386;45.586;12.854;2023-09-12T12:22:13;9.32;;;8.45;;
14599;SDS011;7386;45.586;12.854;2023-09-12T12:24:44;9.38;;;8.57;;
14599;SDS011;7386;45.586;12.854;2023-09-12T12:27:15;9.13;;;8.32;;
14599;SDS011;7386;45.586;12.854;2023-09-12T12:29:44;8.75;;;7.95;;
14599;SDS011;7386;45.586;12.854;2023-09-12T12:32:14;9.48;;;8.57;;
14599;SDS011;7386;45.586;12.854;2023-09-12T12:34:47;9.07;;;8.18;;
14599;SDS011;7386;45.586;12.854;2023-09-12T12:37:36;9.55;;;8.65;;
14599;SDS011;7386;45.586;12.854;2023-09-12T12:40:05;9.40;;;8.50;;
14599;SDS011;7386;45.586;12.854;2023-09-12T12:42:37;9.55;;;8.65;;
14599;SDS011;7386;45.586;12.854;2023-09-12T12:45:20;9.65;;;8.75;;
14599;SDS011;7386;45.586;12.854;2023-09-12T12:47:50;10.35;;;9.07;;
14599;SDS011;7386;45.586;12.854;2023-09-12T12:50:20;9.88;;;8.65;;
14599;SDS011;7386;45.586;12.854;2023-09-12T12:52:48;8.93;;;8.13;;
14599;SDS011;7386;45.586;12.854;2023-09-12T12:55:17;9.40;;;8.50;;
14599;SDS011;7386;45.586;12.854;2023-09-12T12:57:47;9.15;;;8.32;;
14599;SDS011;7386;45.586;12.854;2023-09-12T13:00:17;9.32;;;8.50;;
14599;SDS011;7386;45.586;12.854;2023-09-12T13:02:45;9.35;;;8.45;;
14599;SDS011;7386;45.586;12.854;2023-09-12T13:05:21;9.95;;;9.05;;
14599;SDS011;7386;45.586;12.854;2023-09-12T13:07:50;10.40;;;9.40;;
14599;SDS011;7386;45.586;12.854;2023-09-12T13:10:18;10.30;;;9.30;;
14599;SDS011;7386;45.586;12.854;2023-09-12T13:12:48;9.65;;;8.85;;
14599;SDS011;7386;45.586;12.854;2023-09-12T13:15:17;10.13;;;9.10;;
14599;SDS011;7386;45.586;12.854;2023-09-12T13:17:46;9.93;;;9.00;;
14599;SDS011;7386;45.586;12.854;2023-09-12T13:20:15;10.80;;;9.70;;
14599;SDS011;7386;45.586;12.854;2023-09-12T13:22:44;12.63;;;10.30;;
14599;SDS011;7386;45.586;12.854;2023-09-12T13:25:13;13.43;;;11.38;;
14599;SDS011;7386;45.586;12.854;2023-09-12T13:27:41;28.05;;;14.52;;
14599;SDS011;7386;45.586;12.854;2023-09-12T13:30:12;30.30;;;15.15;;
14599;SDS011;7386;45.586;12.854;2023-09-12T13:32:40;29.48;;;15.45;;
14599;SDS011;7386;45.586;12.854;2023-09-12T13:35:09;25.67;;;14.70;;
14599;SDS011;7386;45.586;12.854;2023-09-12T13:37:37;21.08;;;13.27;;
14599;SDS011;7386;45.586;12.854;2023-09-12T13:40:06;17.95;;;11.73;;
14599;SDS011;7386;45.586;12.854;2023-09-12T13:42:35;16.65;;;11.30;;
14599;SDS011;7386;45.586;12.854;2023-09-12T13:45:04;14.10;;;10.77;;
14599;SDS011;7386;45.586;12.854;2023-09-12T13:47:34;12.35;;;10.60;;
14599;SDS011;7386;45.586;12.854;2023-09-12T13:50:04;12.15;;;9.90;;
14599;SDS011;7386;45.586;12.854;2023-09-12T13:52:33;10.32;;;9.20;;
14599;SDS011;7386;45.586;12.854;2023-09-12T13:55:01;10.55;;;8.55;;
14599;SDS011;7386;45.586;12.854;2023-09-12T13:57:30;9.95;;;8.93;;
14599;SDS011;7386;45.586;12.854;2023-09-12T14:00:05;9.65;;;8.70;;
14599;SDS011;7386;45.586;12.854;2023-09-12T14:02:35;9.13;;;8.32;;
14599;SDS011;7386;45.586;12.854;2023-09-12T14:05:04;9.20;;;8.30;;
14599;SDS011;7386;45.586;12.854;2023-09-12T14:07:39;8.77;;;7.88;;
14599;SDS011;7386;45.586;12.854;2023-09-12T14:10:09;8.30;;;7.60;;
14599;SDS011;7386;45.586;12.854;2023-09-12T14:12:48;9.70;;;8.85;;
14599;SDS011;7386;45.586;12.854;2023-09-12T14:15:17;9.80;;;8.80;;
14599;SDS011;7386;45.586;12.854;2023-09-12T14:17:47;9.48;;;8.57;;
14599;SDS011;7386;45.586;12.854;2023-09-12T14:20:22;8.82;;;8.02;;
14599;SDS011;7386;45.586;12.854;2023-09-12T14:22:51;8.80;;;8.00;;
14599;SDS011;7386;45.586;12.854;2023-09-12T14:25:19;9.40;;;8.50;;
14599;SDS011;7386;45.586;12.854;2023-09-12T14:27:49;8.60;;;7.70;;
14599;SDS011;7386;45.586;12.854;2023-09-12T14:30:18;8.32;;;7.53;;
14599;SDS011;7386;45.586;12.854;2023-09-12T14:32:50;9.00;;;8.10;;
14599;SDS011;7386;45.586;12.854;2023-09-12T14:35:19;8.40;;;7.65;;
14599;SDS011;7386;45.586;12.854;2023-09-12T14:37:47;11.10;;;9.30;;
14599;SDS011;7386;45.586;12.854;2023-09-12T14:40:16;9.63;;;8.73;;
14599;SDS011;7386;45.586;12.854;2023-09-12T14:42:44;8.98;;;7.95;;
14599;SDS011;7386;45.586;12.854;2023-09-12T14:45:13;8.68;;;7.88;;